sensor_id;sensor_type;location;lat;lon;timestamp;P1;durP1;ratioP1;P2;durP2;ratioP2
78674;SDS011;67990;59.826;30.108;2023-06-04T00:00:26;3.13;;;0.40;;
78674;SDS011;67990;59.826;30.108;2023-06-04T00:02:53;4.53;;;0.45;;
78674;SDS011;67990;59.826;30.108;2023-06-04T00:05:20;2.78;;;0.40;;
78674;SDS011;67990;59.826;30.108;2023-06-04T00:07:51;3.35;;;0.38;;
78674;SDS011;67990;59.826;30.108;2023-06-04T00:10:19;2.65;;;0.30;;
78674;SDS011;67990;59.826;30.108;2023-06-04T00:13:05;2.63;;;0.30;;
78674;SDS011;67990;59.826;30.108;2023-06-04T00:15:32;3.05;;;0.40;;
78674;SDS011;67990;59.826;30.108;2023-06-04T00:18:00;2.60;;;0.30;;
78674;SDS011;67990;59.826;30.108;2023-06-04T00:20:45;2.33;;;0.50;;
78674;SDS011;67990;59.826;30.108;2023-06-04T00:23:31;3.78;;;0.50;;
78674;SDS011;67990;59.826;30.108;2023-06-04T00:26:00;2.83;;;0.50;;
78674;SDS011;67990;59.826;30.108;2023-06-04T00:28:47;2.42;;;0.30;;
78674;SDS011;67990;59.826;30.108;2023-06-04T00:31:14;2.72;;;0.40;;
78674;SDS011;67990;59.826;30.108;2023-06-04T00:34:01;2.20;;;0.30;;
78674;SDS011;67990;59.826;30.108;2023-06-04T00:36:29;3.03;;;0.65;;
78674;SDS011;67990;59.826;30.108;2023-06-04T00:38:57;2.80;;;0.30;;
78674;SDS011;67990;59.826;30.108;2023-06-04T00:41:25;2.83;;;0.50;;
78674;SDS011;67990;59.826;30.108;2023-06-04T00:43:53;3.78;;;0.50;;
78674;SDS011;67990;59.826;30.108;2023-06-04T00:46:57;3.25;;;0.57;;
78674;SDS011;67990;59.826;30.108;2023-06-04T00:49:24;3.15;;;0.45;;
78674;SDS011;67990;59.826;30.108;2023-06-04T00:51:52;2.67;;;0.30;;
78674;SDS011;67990;59.826;30.108;2023-06-04T00:54:19;3.28;;;0.47;;
78674;SDS011;67990;59.826;30.108;2023-06-04T00:56:49;3.97;;;0.68;;
78674;SDS011;67990;59.826;30.108;2023-06-04T00:59:16;3.05;;;0.40;;
78674;SDS011;67990;59.826;30.108;2023-06-04T01:01:45;3.45;;;0.40;;
78674;SDS011;67990;59.826;30.108;2023-06-04T01:04:21;4.43;;;0.30;;
78674;SDS011;67990;59.826;30.108;2023-06-04T01:06:53;3.30;;;0.35;;
78674;SDS011;67990;59.826;30.108;2023-06-04T01:09:41;2.70;;;0.50;;
78674;SDS011;67990;59.826;30.108;2023-06-04T01:12:30;2.30;;;0.30;;
78674;SDS011;67990;59.826;30.108;2023-06-04T01:15:16;3.92;;;0.43;;
78674;SDS011;67990;59.826;30.108;2023-06-04T01:18:00;3.87;;;0.30;;
78674;SDS011;67990;59.826;30.108;2023-06-04T01:20:32;3.08;;;0.45;;
78674;SDS011;67990;59.826;30.108;2023-06-04T01:26:12;3.78;;;0.30;;
78674;SDS011;67990;59.826;30.108;2023-06-04T01:32:23;3.10;;;0.40;;
78674;SDS011;67990;59.826;30.108;2023-06-04T01:34:50;2.92;;;0.43;;
78674;SDS011;67990;59.826;30.108;2023-06-04T01:37:17;2.63;;;0.32;;
78674;SDS011;67990;59.826;30.108;2023-06-04T01:39:45;2.30;;;0.38;;
78674;SDS011;67990;59.826;30.108;2023-06-04T01:42:13;3.20;;;0.50;;
78674;SDS011;67990;59.826;30.108;2023-06-04T01:44:42;3.33;;;0.37;;
78674;SDS011;67990;59.826;30.108;2023-06-04T01:47:44;5.90;;;0.40;;
78674;SDS011;67990;59.826;30.108;2023-06-04T01:50:30;2.53;;;0.70;;
78674;SDS011;67990;59.826;30.108;2023-06-04T01:56:20;2.85;;;0.40;;
78674;SDS011;67990;59.826;30.108;2023-06-04T01:58:49;2.67;;;0.40;;
78674;SDS011;67990;59.826;30.108;2023-06-04T02:01:35;3.60;;;0.40;;
78674;SDS011;67990;59.826;30.108;2023-06-04T02:04:21;4.72;;;0.40;;
78674;SDS011;67990;59.826;30.108;2023-06-04T02:06:50;2.83;;;0.40;;
78674;SDS011;67990;59.826;30.108;2023-06-04T02:09:35;2.33;;;0.40;;
78674;SDS011;67990;59.826;30.108;2023-06-04T02:12:21;3.30;;;0.30;;
78674;SDS011;67990;59.826;30.108;2023-06-04T02:15:09;2.80;;;0.40;;
78674;SDS011;67990;59.826;30.108;2023-06-04T02:17:56;4.55;;;0.50;;
78674;SDS011;67990;59.826;30.108;2023-06-04T02:20:25;2.90;;;0.50;;
78674;SDS011;67990;59.826;30.108;2023-06-04T02:23:09;3.58;;;0.38;;
78674;SDS011;67990;59.826;30.108;2023-06-04T02:28:22;2.88;;;0.50;;
78674;SDS011;67990;59.826;30.108;2023-06-04T02:30:50;2.90;;;0.50;;
78674;SDS011;67990;59.826;30.108;2023-06-04T02:33:18;4.05;;;0.60;;
78674;SDS011;67990;59.826;30.108;2023-06-04T02:35:46;2.75;;;0.43;;
78674;SDS011;67990;59.826;30.108;2023-06-04T02:38:13;3.53;;;0.40;;
78674;SDS011;67990;59.826;30.108;2023-06-04T02:40:41;4.47;;;0.50;;
78674;SDS011;67990;59.826;30.108;2023-06-04T02:43:10;3.15;;;0.50;;
78674;SDS011;67990;59.826;30.108;2023-06-04T02:45:37;2.90;;;0.47;;
78674;SDS011;67990;59.826;30.108;2023-06-04T02:48:04;3.78;;;0.50;;
78674;SDS011;67990;59.826;30.108;2023-06-04T02:50:33;5.27;;;0.73;;
78674;SDS011;67990;59.826;30.108;2023-06-04T02:53:00;4.55;;;0.60;;
78674;SDS011;67990;59.826;30.108;2023-06-04T03:03:50;4.47;;;0.40;;
78674;SDS011;67990;59.826;30.108;2023-06-04T03:06:42;2.75;;;0.65;;
78674;SDS011;67990;59.826;30.108;2023-06-04T03:09:45;3.13;;;0.70;;
78674;SDS011;67990;59.826;30.108;2023-06-04T03:12:12;3.72;;;0.38;;
78674;SDS011;67990;59.826;30.108;2023-06-04T03:14:40;2.90;;;0.55;;
78674;SDS011;67990;59.826;30.108;2023-06-04T03:17:08;3.23;;;0.40;;
78674;SDS011;67990;59.826;30.108;2023-06-04T03:19:36;3.97;;;0.60;;
78674;SDS011;67990;59.826;30.108;2023-06-04T03:22:05;3.38;;;1.08;;
78674;SDS011;67990;59.826;30.108;2023-06-04T03:24:34;4.15;;;1.13;;
78674;SDS011;67990;59.826;30.108;2023-06-04T03:27:20;3.92;;;1.55;;
78674;SDS011;67990;59.826;30.108;2023-06-04T03:30:06;2.80;;;0.50;;
78674;SDS011;67990;59.826;30.108;2023-06-04T03:32:59;3.35;;;0.50;;
78674;SDS011;67990;59.826;30.108;2023-06-04T03:35:27;2.72;;;0.60;;
78674;SDS011;67990;59.826;30.108;2023-06-04T03:40:59;2.35;;;0.40;;
78674;SDS011;67990;59.826;30.108;2023-06-04T03:43:27;3.77;;;1.23;;
78674;SDS011;67990;59.826;30.108;2023-06-04T03:45:59;3.80;;;0.43;;
78674;SDS011;67990;59.826;30.108;2023-06-04T03:48:26;2.83;;;0.50;;
78674;SDS011;67990;59.826;30.108;2023-06-04T03:50:53;3.08;;;0.50;;
78674;SDS011;67990;59.826;30.108;2023-06-04T03:53:22;4.57;;;0.88;;
78674;SDS011;67990;59.826;30.108;2023-06-04T03:55:50;3.17;;;0.60;;
78674;SDS011;67990;59.826;30.108;2023-06-04T03:58:17;3.78;;;0.40;;
78674;SDS011;67990;59.826;30.108;2023-06-04T04:00:49;4.47;;;0.80;;
78674;SDS011;67990;59.826;30.108;2023-06-04T04:03:17;3.35;;;0.60;;
78674;SDS011;67990;59.826;30.108;2023-06-04T04:06:04;2.88;;;0.70;;
78674;SDS011;67990;59.826;30.108;2023-06-04T04:11:37;3.20;;;0.60;;
78674;SDS011;67990;59.826;30.108;2023-06-04T04:14:22;3.42;;;1.00;;
78674;SDS011;67990;59.826;30.108;2023-06-04T04:17:08;3.00;;;0.70;;
78674;SDS011;67990;59.826;30.108;2023-06-04T04:19:54;3.78;;;0.82;;
78674;SDS011;67990;59.826;30.108;2023-06-04T04:22:22;3.03;;;1.00;;
78674;SDS011;67990;59.826;30.108;2023-06-04T04:24:50;4.20;;;1.42;;
78674;SDS011;67990;59.826;30.108;2023-06-04T04:30:26;4.03;;;1.13;;
78674;SDS011;67990;59.826;30.108;2023-06-04T04:32:54;3.65;;;1.08;;
78674;SDS011;67990;59.826;30.108;2023-06-04T04:35:31;10.07;;;2.07;;
78674;SDS011;67990;59.826;30.108;2023-06-04T04:38:01;4.72;;;1.13;;
78674;SDS011;67990;59.826;30.108;2023-06-04T04:40:32;3.65;;;1.30;;
78674;SDS011;67990;59.826;30.108;2023-06-04T04:43:02;3.58;;;1.20;;
78674;SDS011;67990;59.826;30.108;2023-06-04T04:48:16;8.93;;;1.50;;
78674;SDS011;67990;59.826;30.108;2023-06-04T04:51:02;4.63;;;1.40;;
78674;SDS011;67990;59.826;30.108;2023-06-04T04:56:36;6.13;;;2.00;;
78674;SDS011;67990;59.826;30.108;2023-06-04T04:59:45;3.25;;;1.52;;
78674;SDS011;67990;59.826;30.108;2023-06-04T05:02:12;3.53;;;1.30;;
78674;SDS011;67990;59.826;30.108;2023-06-04T05:04:40;4.07;;;1.52;;
78674;SDS011;67990;59.826;30.108;2023-06-04T05:07:26;29.35;;;14.82;;
78674;SDS011;67990;59.826;30.108;2023-06-04T05:09:54;39.75;;;22.40;;
78674;SDS011;67990;59.826;30.108;2023-06-04T05:12:24;7.60;;;5.05;;
78674;SDS011;67990;59.826;30.108;2023-06-04T05:14:52;4.13;;;2.07;;
78674;SDS011;67990;59.826;30.108;2023-06-04T05:17:20;3.53;;;1.73;;
78674;SDS011;67990;59.826;30.108;2023-06-04T05:20:09;4.63;;;1.90;;
78674;SDS011;67990;59.826;30.108;2023-06-04T05:22:40;4.68;;;2.22;;
78674;SDS011;67990;59.826;30.108;2023-06-04T05:25:09;4.28;;;1.83;;
78674;SDS011;67990;59.826;30.108;2023-06-04T05:27:39;3.55;;;1.33;;
78674;SDS011;67990;59.826;30.108;2023-06-04T05:30:09;3.30;;;1.40;;
78674;SDS011;67990;59.826;30.108;2023-06-04T05:36:02;3.92;;;1.90;;
78674;SDS011;67990;59.826;30.108;2023-06-04T05:41:50;4.60;;;1.17;;
78674;SDS011;67990;59.826;30.108;2023-06-04T05:44:19;4.37;;;1.23;;
78674;SDS011;67990;59.826;30.108;2023-06-04T05:46:47;5.50;;;3.22;;
78674;SDS011;67990;59.826;30.108;2023-06-04T05:49:14;3.92;;;1.52;;
78674;SDS011;67990;59.826;30.108;2023-06-04T05:51:42;4.10;;;1.20;;
78674;SDS011;67990;59.826;30.108;2023-06-04T05:54:10;3.85;;;1.85;;
78674;SDS011;67990;59.826;30.108;2023-06-04T05:59:43;4.18;;;1.40;;
78674;SDS011;67990;59.826;30.108;2023-06-04T06:05:28;3.40;;;1.20;;
78674;SDS011;67990;59.826;30.108;2023-06-04T06:07:55;3.75;;;1.58;;
78674;SDS011;67990;59.826;30.108;2023-06-04T06:10:23;3.57;;;1.50;;
78674;SDS011;67990;59.826;30.108;2023-06-04T06:12:51;4.97;;;1.30;;
78674;SDS011;67990;59.826;30.108;2023-06-04T06:15:20;3.30;;;1.30;;
78674;SDS011;67990;59.826;30.108;2023-06-04T06:17:49;3.28;;;0.82;;
78674;SDS011;67990;59.826;30.108;2023-06-04T06:20:17;4.18;;;1.48;;
78674;SDS011;67990;59.826;30.108;2023-06-04T06:22:46;4.77;;;1.53;;
78674;SDS011;67990;59.826;30.108;2023-06-04T06:25:14;4.85;;;1.65;;
78674;SDS011;67990;59.826;30.108;2023-06-04T06:28:04;4.47;;;1.58;;
78674;SDS011;67990;59.826;30.108;2023-06-04T06:30:34;4.00;;;1.30;;
78674;SDS011;67990;59.826;30.108;2023-06-04T06:33:20;3.95;;;1.50;;
78674;SDS011;67990;59.826;30.108;2023-06-04T06:35:49;4.00;;;1.50;;
78674;SDS011;67990;59.826;30.108;2023-06-04T06:38:34;6.53;;;4.63;;
78674;SDS011;67990;59.826;30.108;2023-06-04T06:41:20;3.55;;;1.15;;
78674;SDS011;67990;59.826;30.108;2023-06-04T06:43:47;4.45;;;1.23;;
78674;SDS011;67990;59.826;30.108;2023-06-04T06:46:16;4.05;;;1.42;;
78674;SDS011;67990;59.826;30.108;2023-06-04T06:49:00;6.63;;;1.40;;
78674;SDS011;67990;59.826;30.108;2023-06-04T06:51:27;3.50;;;1.33;;
78674;SDS011;67990;59.826;30.108;2023-06-04T06:54:31;4.60;;;1.60;;
78674;SDS011;67990;59.826;30.108;2023-06-04T06:56:58;4.35;;;1.70;;
78674;SDS011;67990;59.826;30.108;2023-06-04T07:02:33;5.23;;;2.20;;
78674;SDS011;67990;59.826;30.108;2023-06-04T07:07:46;4.28;;;1.60;;
78674;SDS011;67990;59.826;30.108;2023-06-04T07:10:31;6.18;;;1.27;;
78674;SDS011;67990;59.826;30.108;2023-06-04T07:12:58;4.07;;;1.10;;
78674;SDS011;67990;59.826;30.108;2023-06-04T07:15:26;3.53;;;0.77;;
78674;SDS011;67990;59.826;30.108;2023-06-04T07:18:13;2.67;;;0.60;;
78674;SDS011;67990;59.826;30.108;2023-06-04T07:20:40;3.78;;;1.10;;
78674;SDS011;67990;59.826;30.108;2023-06-04T07:23:25;6.93;;;2.58;;
78674;SDS011;67990;59.826;30.108;2023-06-04T07:26:33;13.15;;;8.32;;
78674;SDS011;67990;59.826;30.108;2023-06-04T07:31:46;38.30;;;26.60;;
78674;SDS011;67990;59.826;30.108;2023-06-04T07:34:15;30.30;;;21.27;;
78674;SDS011;67990;59.826;30.108;2023-06-04T07:36:42;9.50;;;5.85;;
78674;SDS011;67990;59.826;30.108;2023-06-04T07:39:09;6.22;;;3.58;;
78674;SDS011;67990;59.826;30.108;2023-06-04T07:41:36;5.43;;;3.20;;
78674;SDS011;67990;59.826;30.108;2023-06-04T07:47:06;3.88;;;2.10;;
78674;SDS011;67990;59.826;30.108;2023-06-04T07:52:20;5.68;;;2.65;;
78674;SDS011;67990;59.826;30.108;2023-06-04T07:54:47;5.28;;;2.80;;
78674;SDS011;67990;59.826;30.108;2023-06-04T07:57:31;5.00;;;3.37;;
78674;SDS011;67990;59.826;30.108;2023-06-04T07:59:59;4.20;;;1.88;;
78674;SDS011;67990;59.826;30.108;2023-06-04T08:02:37;3.63;;;1.25;;
78674;SDS011;67990;59.826;30.108;2023-06-04T08:05:06;4.00;;;1.30;;
78674;SDS011;67990;59.826;30.108;2023-06-04T08:07:33;4.50;;;1.40;;
78674;SDS011;67990;59.826;30.108;2023-06-04T08:10:00;3.10;;;0.97;;
78674;SDS011;67990;59.826;30.108;2023-06-04T08:12:28;2.72;;;0.90;;
78674;SDS011;67990;59.826;30.108;2023-06-04T08:14:55;2.85;;;0.80;;
78674;SDS011;67990;59.826;30.108;2023-06-04T08:20:32;3.70;;;1.13;;
78674;SDS011;67990;59.826;30.108;2023-06-04T08:26:25;10.15;;;7.05;;
78674;SDS011;67990;59.826;30.108;2023-06-04T08:29:02;9.95;;;6.40;;
78674;SDS011;67990;59.826;30.108;2023-06-04T08:34:49;3.20;;;1.50;;
78674;SDS011;67990;59.826;30.108;2023-06-04T08:37:18;4.43;;;1.53;;
78674;SDS011;67990;59.826;30.108;2023-06-04T08:39:45;3.50;;;1.20;;
78674;SDS011;67990;59.826;30.108;2023-06-04T08:42:14;3.92;;;1.58;;
78674;SDS011;67990;59.826;30.108;2023-06-04T08:44:46;3.30;;;1.45;;
78674;SDS011;67990;59.826;30.108;2023-06-04T08:47:18;3.60;;;1.52;;
78674;SDS011;67990;59.826;30.108;2023-06-04T08:49:48;4.10;;;1.70;;
78674;SDS011;67990;59.826;30.108;2023-06-04T08:52:19;2.63;;;0.93;;
78674;SDS011;67990;59.826;30.108;2023-06-04T08:54:48;4.03;;;1.00;;
78674;SDS011;67990;59.826;30.108;2023-06-04T08:57:16;3.53;;;1.60;;
78674;SDS011;67990;59.826;30.108;2023-06-04T08:59:45;3.53;;;1.67;;
78674;SDS011;67990;59.826;30.108;2023-06-04T09:02:13;3.50;;;1.98;;
78674;SDS011;67990;59.826;30.108;2023-06-04T09:04:40;4.57;;;1.80;;
78674;SDS011;67990;59.826;30.108;2023-06-04T09:07:09;4.97;;;2.83;;
78674;SDS011;67990;59.826;30.108;2023-06-04T09:09:39;6.80;;;3.55;;
78674;SDS011;67990;59.826;30.108;2023-06-04T09:12:25;5.47;;;2.78;;
78674;SDS011;67990;59.826;30.108;2023-06-04T09:14:54;4.00;;;2.00;;
78674;SDS011;67990;59.826;30.108;2023-06-04T09:17:21;3.58;;;1.48;;
78674;SDS011;67990;59.826;30.108;2023-06-04T09:19:49;3.93;;;1.67;;
78674;SDS011;67990;59.826;30.108;2023-06-04T09:22:17;3.53;;;1.60;;
78674;SDS011;67990;59.826;30.108;2023-06-04T09:24:46;4.93;;;2.42;;
78674;SDS011;67990;59.826;30.108;2023-06-04T09:27:15;5.50;;;2.70;;
78674;SDS011;67990;59.826;30.108;2023-06-04T09:30:01;4.10;;;2.13;;
78674;SDS011;67990;59.826;30.108;2023-06-04T09:32:46;3.67;;;1.40;;
78674;SDS011;67990;59.826;30.108;2023-06-04T09:35:14;3.73;;;1.53;;
78674;SDS011;67990;59.826;30.108;2023-06-04T09:37:43;2.72;;;1.25;;
78674;SDS011;67990;59.826;30.108;2023-06-04T09:40:21;4.22;;;1.30;;
78674;SDS011;67990;59.826;30.108;2023-06-04T09:42:49;2.70;;;1.20;;
78674;SDS011;67990;59.826;30.108;2023-06-04T09:45:29;3.20;;;1.50;;
78674;SDS011;67990;59.826;30.108;2023-06-04T09:51:05;2.95;;;0.73;;
78674;SDS011;67990;59.826;30.108;2023-06-04T09:53:55;3.13;;;0.70;;
78674;SDS011;67990;59.826;30.108;2023-06-04T09:56:42;3.10;;;0.60;;
78674;SDS011;67990;59.826;30.108;2023-06-04T09:59:09;3.15;;;0.80;;
78674;SDS011;67990;59.826;30.108;2023-06-04T10:01:55;3.03;;;0.63;;
78674;SDS011;67990;59.826;30.108;2023-06-04T10:04:22;2.45;;;0.68;;
78674;SDS011;67990;59.826;30.108;2023-06-04T10:07:07;4.15;;;0.55;;
78674;SDS011;67990;59.826;30.108;2023-06-04T10:09:36;3.80;;;0.65;;
78674;SDS011;67990;59.826;30.108;2023-06-04T10:12:31;2.67;;;0.80;;
78674;SDS011;67990;59.826;30.108;2023-06-04T10:15:05;2.83;;;0.80;;
78674;SDS011;67990;59.826;30.108;2023-06-04T10:20:22;3.35;;;0.80;;
78674;SDS011;67990;59.826;30.108;2023-06-04T10:25:36;2.40;;;0.70;;
78674;SDS011;67990;59.826;30.108;2023-06-04T10:31:10;2.77;;;0.80;;
78674;SDS011;67990;59.826;30.108;2023-06-04T10:33:38;3.03;;;0.60;;
78674;SDS011;67990;59.826;30.108;2023-06-04T10:36:18;3.13;;;0.85;;
78674;SDS011;67990;59.826;30.108;2023-06-04T10:38:46;3.03;;;0.55;;
78674;SDS011;67990;59.826;30.108;2023-06-04T10:41:31;2.25;;;0.73;;
78674;SDS011;67990;59.826;30.108;2023-06-04T10:44:17;2.70;;;0.63;;
78674;SDS011;67990;59.826;30.108;2023-06-04T10:46:46;3.07;;;0.90;;
78674;SDS011;67990;59.826;30.108;2023-06-04T10:52:09;2.40;;;0.70;;
78674;SDS011;67990;59.826;30.108;2023-06-04T10:54:36;4.05;;;0.75;;
78674;SDS011;67990;59.826;30.108;2023-06-04T10:57:09;3.22;;;0.90;;
78674;SDS011;67990;59.826;30.108;2023-06-04T10:59:38;2.80;;;0.80;;
78674;SDS011;67990;59.826;30.108;2023-06-04T11:02:25;2.38;;;0.70;;
78674;SDS011;67990;59.826;30.108;2023-06-04T11:04:59;2.80;;;0.77;;
78674;SDS011;67990;59.826;30.108;2023-06-04T11:07:40;2.95;;;0.98;;
78674;SDS011;67990;59.826;30.108;2023-06-04T11:10:10;3.05;;;1.00;;
78674;SDS011;67990;59.826;30.108;2023-06-04T11:12:41;2.80;;;0.93;;
78674;SDS011;67990;59.826;30.108;2023-06-04T11:15:09;3.22;;;0.80;;
78674;SDS011;67990;59.826;30.108;2023-06-04T11:17:39;3.33;;;0.98;;
78674;SDS011;67990;59.826;30.108;2023-06-04T11:20:33;3.58;;;1.02;;
78674;SDS011;67990;59.826;30.108;2023-06-04T11:23:00;4.00;;;1.10;;
78674;SDS011;67990;59.826;30.108;2023-06-04T11:25:28;3.30;;;1.00;;
78674;SDS011;67990;59.826;30.108;2023-06-04T11:27:58;2.78;;;0.90;;
78674;SDS011;67990;59.826;30.108;2023-06-04T11:30:27;4.35;;;1.20;;
78674;SDS011;67990;59.826;30.108;2023-06-04T11:33:02;4.40;;;1.00;;
78674;SDS011;67990;59.826;30.108;2023-06-04T11:35:30;3.20;;;1.23;;
78674;SDS011;67990;59.826;30.108;2023-06-04T11:37:58;2.93;;;1.07;;
78674;SDS011;67990;59.826;30.108;2023-06-04T11:40:43;5.22;;;0.93;;
78674;SDS011;67990;59.826;30.108;2023-06-04T11:43:10;2.60;;;0.95;;
78674;SDS011;67990;59.826;30.108;2023-06-04T11:45:38;3.60;;;0.80;;
78674;SDS011;67990;59.826;30.108;2023-06-04T11:48:25;2.75;;;0.90;;
78674;SDS011;67990;59.826;30.108;2023-06-04T11:53:57;2.83;;;0.95;;
78674;SDS011;67990;59.826;30.108;2023-06-04T11:56:24;3.10;;;1.30;;
78674;SDS011;67990;59.826;30.108;2023-06-04T11:59:11;3.58;;;0.80;;
78674;SDS011;67990;59.826;30.108;2023-06-04T12:04:44;3.03;;;0.93;;
78674;SDS011;67990;59.826;30.108;2023-06-04T12:07:47;4.50;;;0.87;;
78674;SDS011;67990;59.826;30.108;2023-06-04T12:10:16;3.50;;;1.15;;
78674;SDS011;67990;59.826;30.108;2023-06-04T12:12:44;3.22;;;1.40;;
78674;SDS011;67990;59.826;30.108;2023-06-04T12:15:30;4.00;;;1.25;;
78674;SDS011;67990;59.826;30.108;2023-06-04T12:21:03;3.93;;;1.27;;
78674;SDS011;67990;59.826;30.108;2023-06-04T12:23:48;2.83;;;0.95;;
78674;SDS011;67990;59.826;30.108;2023-06-04T12:26:34;4.00;;;1.20;;
78674;SDS011;67990;59.826;30.108;2023-06-04T12:29:21;3.67;;;0.90;;
78674;SDS011;67990;59.826;30.108;2023-06-04T12:31:48;2.42;;;0.80;;
78674;SDS011;67990;59.826;30.108;2023-06-04T12:34:34;2.50;;;1.00;;
78674;SDS011;67990;59.826;30.108;2023-06-04T12:37:21;3.23;;;0.80;;
78674;SDS011;67990;59.826;30.108;2023-06-04T12:39:50;3.40;;;1.15;;
78674;SDS011;67990;59.826;30.108;2023-06-04T12:42:17;4.40;;;1.08;;
78674;SDS011;67990;59.826;30.108;2023-06-04T12:44:46;3.47;;;1.13;;
78674;SDS011;67990;59.826;30.108;2023-06-04T12:47:13;3.47;;;1.00;;
78674;SDS011;67990;59.826;30.108;2023-06-04T12:49:42;2.37;;;0.87;;
78674;SDS011;67990;59.826;30.108;2023-06-04T12:52:09;2.58;;;0.70;;
78674;SDS011;67990;59.826;30.108;2023-06-04T12:54:38;2.60;;;0.77;;
78674;SDS011;67990;59.826;30.108;2023-06-04T12:57:23;2.75;;;0.80;;
78674;SDS011;67990;59.826;30.108;2023-06-04T13:05:59;3.33;;;0.97;;
78674;SDS011;67990;59.826;30.108;2023-06-04T13:08:26;2.63;;;0.90;;
78674;SDS011;67990;59.826;30.108;2023-06-04T13:10:55;3.03;;;0.93;;
78674;SDS011;67990;59.826;30.108;2023-06-04T13:13:22;3.35;;;0.80;;
78674;SDS011;67990;59.826;30.108;2023-06-04T13:16:07;2.75;;;0.90;;
78674;SDS011;67990;59.826;30.108;2023-06-04T13:18:34;2.93;;;0.90;;
78674;SDS011;67990;59.826;30.108;2023-06-04T13:21:38;4.82;;;1.35;;
78674;SDS011;67990;59.826;30.108;2023-06-04T13:24:23;2.42;;;0.70;;
78674;SDS011;67990;59.826;30.108;2023-06-04T13:27:09;2.90;;;0.80;;
78674;SDS011;67990;59.826;30.108;2023-06-04T13:32:40;3.77;;;1.33;;
78674;SDS011;67990;59.826;30.108;2023-06-04T13:38:12;3.53;;;0.90;;
78674;SDS011;67990;59.826;30.108;2023-06-04T13:40:39;3.78;;;0.90;;
78674;SDS011;67990;59.826;30.108;2023-06-04T13:46:30;3.43;;;0.70;;
78674;SDS011;67990;59.826;30.108;2023-06-04T13:48:58;3.25;;;0.88;;
78674;SDS011;67990;59.826;30.108;2023-06-04T13:51:25;4.53;;;1.52;;
78674;SDS011;67990;59.826;30.108;2023-06-04T13:56:38;2.63;;;0.80;;
78674;SDS011;67990;59.826;30.108;2023-06-04T13:59:07;3.00;;;0.80;;
78674;SDS011;67990;59.826;30.108;2023-06-04T14:04:20;2.85;;;0.68;;
78674;SDS011;67990;59.826;30.108;2023-06-04T14:07:04;3.47;;;0.70;;
78674;SDS011;67990;59.826;30.108;2023-06-04T14:09:32;2.53;;;0.60;;
78674;SDS011;67990;59.826;30.108;2023-06-04T14:11:59;4.03;;;0.63;;
78674;SDS011;67990;59.826;30.108;2023-06-04T14:14:28;3.53;;;0.50;;
78674;SDS011;67990;59.826;30.108;2023-06-04T14:17:01;2.38;;;0.50;;
78674;SDS011;67990;59.826;30.108;2023-06-04T14:19:28;2.80;;;0.70;;
78674;SDS011;67990;59.826;30.108;2023-06-04T14:21:55;2.22;;;0.50;;
78674;SDS011;67990;59.826;30.108;2023-06-04T14:24:22;4.07;;;0.60;;
78674;SDS011;67990;59.826;30.108;2023-06-04T14:26:50;2.97;;;0.40;;
78674;SDS011;67990;59.826;30.108;2023-06-04T14:29:37;2.60;;;0.50;;
78674;SDS011;67990;59.826;30.108;2023-06-04T14:34:50;2.17;;;0.55;;
78674;SDS011;67990;59.826;30.108;2023-06-04T14:37:17;3.07;;;0.40;;
78674;SDS011;67990;59.826;30.108;2023-06-04T14:40:04;1.80;;;0.40;;
78674;SDS011;67990;59.826;30.108;2023-06-04T14:42:32;2.20;;;0.45;;
78674;SDS011;67990;59.826;30.108;2023-06-04T14:45:01;2.67;;;0.40;;
78674;SDS011;67990;59.826;30.108;2023-06-04T14:47:46;1.98;;;0.45;;
78674;SDS011;67990;59.826;30.108;2023-06-04T14:50:16;3.07;;;0.40;;
78674;SDS011;67990;59.826;30.108;2023-06-04T14:53:02;2.22;;;0.50;;
78674;SDS011;67990;59.826;30.108;2023-06-04T14:55:32;2.40;;;0.60;;
78674;SDS011;67990;59.826;30.108;2023-06-04T14:58:19;3.30;;;0.50;;
78674;SDS011;67990;59.826;30.108;2023-06-04T15:00:47;2.15;;;0.43;;
78674;SDS011;67990;59.826;30.108;2023-06-04T15:03:14;3.77;;;0.30;;
78674;SDS011;67990;59.826;30.108;2023-06-04T15:08:46;2.30;;;0.50;;
78674;SDS011;67990;59.826;30.108;2023-06-04T15:11:13;2.25;;;0.60;;
78674;SDS011;67990;59.826;30.108;2023-06-04T15:13:41;3.85;;;0.60;;
78674;SDS011;67990;59.826;30.108;2023-06-04T15:16:28;3.10;;;0.65;;
78674;SDS011;67990;59.826;30.108;2023-06-04T15:18:56;2.10;;;0.50;;
78674;SDS011;67990;59.826;30.108;2023-06-04T15:21:23;3.25;;;0.50;;
78674;SDS011;67990;59.826;30.108;2023-06-04T15:23:50;3.00;;;0.55;;
78674;SDS011;67990;59.826;30.108;2023-06-04T15:29:03;2.70;;;0.60;;
78674;SDS011;67990;59.826;30.108;2023-06-04T15:31:49;4.97;;;0.60;;
78674;SDS011;67990;59.826;30.108;2023-06-04T15:34:16;2.80;;;0.70;;
78674;SDS011;67990;59.826;30.108;2023-06-04T15:36:44;3.95;;;0.82;;
78674;SDS011;67990;59.826;30.108;2023-06-04T15:39:12;2.28;;;0.50;;
78674;SDS011;67990;59.826;30.108;2023-06-04T15:41:39;3.38;;;0.70;;
78674;SDS011;67990;59.826;30.108;2023-06-04T15:44:24;3.87;;;0.60;;
78674;SDS011;67990;59.826;30.108;2023-06-04T15:46:53;2.20;;;0.45;;
78674;SDS011;67990;59.826;30.108;2023-06-04T15:54:51;1.95;;;0.40;;
78674;SDS011;67990;59.826;30.108;2023-06-04T15:57:19;2.73;;;0.40;;
78674;SDS011;67990;59.826;30.108;2023-06-04T15:59:58;2.30;;;0.60;;
78674;SDS011;67990;59.826;30.108;2023-06-04T16:02:27;2.10;;;0.50;;
78674;SDS011;67990;59.826;30.108;2023-06-04T16:05:12;2.85;;;0.73;;
78674;SDS011;67990;59.826;30.108;2023-06-04T16:07:40;2.28;;;0.45;;
78674;SDS011;67990;59.826;30.108;2023-06-04T16:10:07;2.90;;;0.80;;
78674;SDS011;67990;59.826;30.108;2023-06-04T16:12:35;2.40;;;0.40;;
78674;SDS011;67990;59.826;30.108;2023-06-04T16:15:19;2.60;;;0.60;;
78674;SDS011;67990;59.826;30.108;2023-06-04T16:17:48;2.50;;;0.40;;
78674;SDS011;67990;59.826;30.108;2023-06-04T16:23:01;2.33;;;0.40;;
78674;SDS011;67990;59.826;30.108;2023-06-04T16:25:47;2.38;;;0.52;;
78674;SDS011;67990;59.826;30.108;2023-06-04T16:28:14;2.30;;;0.50;;
78674;SDS011;67990;59.826;30.108;2023-06-04T16:33:28;2.67;;;0.50;;
78674;SDS011;67990;59.826;30.108;2023-06-04T16:36:14;3.03;;;0.70;;
78674;SDS011;67990;59.826;30.108;2023-06-04T16:38:41;2.13;;;0.50;;
78674;SDS011;67990;59.826;30.108;2023-06-04T16:41:08;2.70;;;0.60;;
78674;SDS011;67990;59.826;30.108;2023-06-04T16:43:36;3.28;;;1.00;;
78674;SDS011;67990;59.826;30.108;2023-06-04T16:46:03;4.43;;;1.23;;
78674;SDS011;67990;59.826;30.108;2023-06-04T16:48:49;5.17;;;1.67;;
78674;SDS011;67990;59.826;30.108;2023-06-04T16:51:34;4.32;;;1.20;;
78674;SDS011;67990;59.826;30.108;2023-06-04T16:54:02;3.28;;;0.73;;
78674;SDS011;67990;59.826;30.108;2023-06-04T16:56:29;2.83;;;0.80;;
78674;SDS011;67990;59.826;30.108;2023-06-04T16:58:56;2.78;;;0.60;;
78674;SDS011;67990;59.826;30.108;2023-06-04T17:01:59;2.67;;;0.87;;
78674;SDS011;67990;59.826;30.108;2023-06-04T17:04:27;3.65;;;1.00;;
78674;SDS011;67990;59.826;30.108;2023-06-04T17:06:55;4.35;;;0.85;;
78674;SDS011;67990;59.826;30.108;2023-06-04T17:09:39;2.15;;;0.55;;
78674;SDS011;67990;59.826;30.108;2023-06-04T17:12:07;3.83;;;0.60;;
78674;SDS011;67990;59.826;30.108;2023-06-04T17:14:34;5.23;;;0.57;;
78674;SDS011;67990;59.826;30.108;2023-06-04T17:22:36;2.40;;;0.47;;
78674;SDS011;67990;59.826;30.108;2023-06-04T17:25:21;3.72;;;0.88;;
78674;SDS011;67990;59.826;30.108;2023-06-04T17:27:48;2.47;;;0.50;;
78674;SDS011;67990;59.826;30.108;2023-06-04T17:30:52;2.63;;;0.60;;
78674;SDS011;67990;59.826;30.108;2023-06-04T17:33:19;2.80;;;0.60;;